Time;durP1;ratioP1;P1;durP2;ratioP2;P2;SDS_P1;SDS_P2;PMS_P1;PMS_P2;Temp;Humidity;BMP_temperature;BMP_pressure;BME280_temperature;BME280_humidity;BME280_pressure;Samples;Min_cycle;Max_cycle;Signal;HPM_P1;HPM_P2
2021/11/17 02:28:12;;;;;;;96.88;32.90;;;5.60;99.90;;;;;;6119818;23;20525;-79
2021/11/17 02:30:59;;;;;;;97.30;32.33;;;5.70;99.90;;;;;;6095657;23;20021;-79
2021/11/17 02:33:48;;;;;;;95.38;32.92;;;5.70;99.90;;;;;;6124205;23;20062;-80
2021/11/17 02:36:32;;;;;;;100.03;32.58;;;5.70;99.90;;;;;;6191415;23;20127;-80
2021/11/17 02:39:10;;;;;;;105.63;33.53;;;5.70;99.90;;;;;;6219605;23;20034;-80
2021/11/17 02:41:45;;;;;;;92.50;32.25;;;5.70;99.90;;;;;;6217575;23;20066;-79
2021/11/17 02:44:20;;;;;;;100.75;32.78;;;5.70;99.90;;;;;;6215507;23;20019;-80
2021/11/17 02:46:48;;;;;;;;;;;5.70;99.90;;;;;;6191578;23;20497;-80
2021/11/17 02:49:46;;;;;;;85.57;30.13;;;5.80;99.90;;;;;;6216986;23;19942;-80
2021/11/17 02:52:26;;;;;;;89.03;29.83;;;5.80;99.90;;;;;;6184874;22;20055;-79
2021/11/17 02:55:35;;;;;;;88.43;30.52;;;5.80;99.90;;;;;;6182365;23;20100;-79
2021/11/17 02:58:09;;;;;;;93.68;32.00;;;5.80;99.90;;;;;;6184020;23;20009;-79
2021/11/17 03:00:52;;;;;;;97.67;32.40;;;5.80;99.90;;;;;;6208998;23;20103;-80
2021/11/17 03:03:26;;;;;;;92.88;31.83;;;5.80;99.90;;;;;;6209934;23;20295;-80
2021/11/17 03:06:16;;;;;;;89.72;31.20;;;5.90;99.90;;;;;;6183478;23;20017;-79
2021/11/17 03:09:00;;;;;;;84.95;30.45;;;5.80;99.90;;;;;;6210218;22;20052;-79
2021/11/17 03:11:32;;;;;;;87.33;30.40;;;5.80;99.90;;;;;;6189474;23;20023;-79
2021/11/17 03:14:26;;;;;;;89.53;31.27;;;5.90;99.90;;;;;;6192416;23;20252;-80
2021/11/17 03:16:59;;;;;;;85.43;29.52;;;5.90;99.90;;;;;;6195578;23;20008;-79
2021/11/17 03:19:39;;;;;;;79.22;29.85;;;6.10;99.90;;;;;;6191687;23;20012;-80
2021/11/17 03:22:08;;;;;;;89.97;30.80;;;5.90;99.90;;;;;;6216045;23;20056;-80
2021/11/17 03:24:55;;;;;;;84.35;29.85;;;6.00;99.90;;;;;;6214228;23;20028;-79
2021/11/17 03:27:36;;;;;;;83.22;30.60;;;6.00;99.90;;;;;;6189789;23;20453;-80
2021/11/17 03:30:26;;;;;;;86.88;30.15;;;6.00;99.90;;;;;;6241584;23;20459;-80
2021/11/17 03:33:00;;;;;;;83.00;29.33;;;6.00;99.90;;;;;;6216158;23;20016;-80
2021/11/17 03:35:35;;;;;;;85.43;30.27;;;6.00;99.90;;;;;;6242113;23;20015;-80
2021/11/17 03:38:39;;;;;;;81.68;30.63;;;6.00;99.90;;;;;;6242089;23;20012;-80
2021/11/17 03:41:05;;;;;;;88.65;32.05;;;6.00;99.90;;;;;;6210074;23;20027;-80
2021/11/17 03:43:49;;;;;;;84.10;31.00;;;6.00;99.90;;;;;;6208221;23;20024;-80
2021/11/17 03:46:27;;;;;;;90.68;32.00;;;6.10;99.90;;;;;;6209175;23;20028;-80
2021/11/17 03:49:11;;;;;;;87.47;31.55;;;6.10;99.90;;;;;;6158901;23;20017;-80
2021/11/17 03:51:54;;;;;;;89.63;31.92;;;6.10;99.90;;;;;;6182555;23;20016;-80
2021/11/17 03:54:23;;;;;;;93.88;33.05;;;6.10;99.90;;;;;;6183525;23;20013;-81
2021/11/17 03:56:48;;;;;;;107.47;33.83;;;6.10;99.90;;;;;;6206932;23;20012;-80
2021/11/17 03:59:31;;;;;;;93.95;33.25;;;6.20;99.90;;;;;;6207815;23;20099;-80
2021/11/17 04:02:09;;;;;;;103.40;34.13;;;6.20;99.90;;;;;;6207121;23;20023;-80
2021/11/17 04:05:03;;;;;;;99.68;33.75;;;6.20;99.90;;;;;;6183466;23;20024;-80
2021/11/17 04:07:55;;;;;;;103.05;34.17;;;6.20;99.90;;;;;;6161636;22;20024;-80
2021/11/17 04:10:46;;;;;;;102.25;35.30;;;6.30;99.90;;;;;;6138807;23;20019;-81
2021/11/17 04:13:33;;;;;;;104.28;35.10;;;6.20;99.90;;;;;;6135075;23;20051;-81
2021/11/17 04:16:02;;;;;;;102.88;33.58;;;6.20;99.90;;;;;;6232886;23;20047;-81
2021/11/17 04:18:43;;;;;;;109.30;35.50;;;6.20;99.90;;;;;;6240074;23;20027;-81
2021/11/17 04:21:33;;;;;;;124.05;38.20;;;6.20;99.90;;;;;;6191729;23;20134;-81
2021/11/17 04:24:14;;;;;;;103.70;35.17;;;6.20;99.90;;;;;;6215393;23;20016;-81
2021/11/17 04:27:11;;;;;;;112.45;35.88;;;6.20;99.90;;;;;;6214390;23;20019;-81
2021/11/17 04:29:51;;;;;;;116.78;35.70;;;6.20;99.90;;;;;;6212647;23;20440;-82
2021/11/17 04:32:17;;;;;;;108.03;33.40;;;6.30;99.90;;;;;;6213653;23;20453;-81
2021/11/17 04:35:09;;;;;;;100.22;33.35;;;6.20;99.90;;;;;;6216258;23;20016;-81
2021/11/17 04:37:35;;;;;;;107.32;33.28;;;6.40;99.90;;;;;;6215745;23;20022;-80
2021/11/17 04:40:19;;;;;;;96.15;32.75;;;6.20;99.90;;;;;;6215936;23;20110;-81
2021/11/17 04:43:06;;;;;;;107.53;34.22;;;6.30;99.90;;;;;;6240983;23;20089;-80
2021/11/17 04:45:59;;;;;;;95.93;32.15;;;6.30;99.90;;;;;;6240962;23;20412;-81
2021/11/17 04:48:40;;;;;;;98.30;32.72;;;6.30;99.90;;;;;;6214853;23;20020;-81
2021/11/17 04:51:12;;;;;;;95.57;32.28;;;6.30;99.90;;;;;;6240373;23;20099;-81
2021/11/17 04:53:56;;;;;;;98.68;31.70;;;6.30;99.90;;;;;;6239368;23;20039;-81
2021/11/17 04:56:24;;;;;;;88.82;29.88;;;6.30;99.90;;;;;;6239922;23;20008;-80
2021/11/17 04:59:21;;;;;;;96.88;31.38;;;6.40;99.90;;;;;;6214234;23;20864;-81
2021/11/17 05:01:47;;;;;;;88.47;30.63;;;6.40;99.90;;;;;;6214075;23;20012;-80
2021/11/17 05:04:33;;;;;;;94.88;31.60;;;6.30;99.90;;;;;;6240085;22;20074;-81
2021/11/17 05:07:21;;;;;;;88.03;31.10;;;6.30;99.90;;;;;;6209031;23;20420;-80
2021/11/17 05:09:58;;;;;;;97.57;31.05;;;6.40;99.90;;;;;;6207743;23;20023;-81
2021/11/17 05:12:32;;;;;;;92.28;31.95;;;6.40;99.90;;;;;;6159243;23;20023;-81
2021/11/17 05:15:36;;;;;;;104.93;32.10;;;6.40;99.90;;;;;;6182750;23;20445;-81
2021/11/17 05:18:33;;;;;;;102.72;33.92;;;6.40;99.90;;;;;;6065194;23;20017;-80
2021/11/17 05:21:33;;;;;;;102.40;34.80;;;6.50;99.90;;;;;;6043296;23;20097;-81
2021/11/17 05:24:06;;;;;;;105.93;33.95;;;6.50;99.90;;;;;;6041444;23;20296;-81
2021/11/17 05:26:42;;;;;;;107.85;34.38;;;6.50;99.90;;;;;;6064473;23;20025;-80
2021/11/17 05:29:28;;;;;;;118.07;36.83;;;6.50;99.90;;;;;;6041065;23;20018;-81
2021/11/17 05:31:59;;;;;;;121.00;36.67;;;6.50;99.90;;;;;;6066295;23;20061;-81
2021/11/17 05:34:43;;;;;;;126.05;38.47;;;6.50;99.90;;;;;;6041987;23;20022;-81
2021/11/17 05:37:27;;;;;;;125.30;38.53;;;6.50;99.90;;;;;;6089736;23;20014;-81
2021/11/17 05:40:04;;;;;;;130.48;40.65;;;6.50;99.90;;;;;;6041558;23;20014;-81
2021/11/17 05:43:04;;;;;;;127.63;40.15;;;6.60;99.90;;;;;;6042474;23;20338;-81
2021/11/17 05:45:32;;;;;;;121.65;38.42;;;6.50;99.90;;;;;;6070570;23;20022;-80
2021/11/17 05:48:29;;;;;;;135.98;42.53;;;6.60;99.90;;;;;;6115492;23;20016;-80
2021/11/17 05:51:19;;;;;;;143.18;40.88;;;6.60;99.90;;;;;;6215888;23;20137;-81
2021/11/17 05:53:45;;;;;;;134.75;42.65;;;6.60;99.90;;;;;;6217125;23;20074;-80
2021/11/17 05:56:16;;;;;;;146.40;43.75;;;6.60;99.90;;;;;;6241182;23;20098;-81
2021/11/17 05:58:48;;;;;;;150.63;45.47;;;6.60;99.90;;;;;;6240506;23;20008;-81
2021/11/17 06:01:29;;;;;;;140.10;44.28;;;6.60;99.90;;;;;;6241095;23;20020;-81
2021/11/17 06:04:02;;;;;;;157.73;45.40;;;6.70;99.90;;;;;;6241359;23;20091;-81
2021/11/17 06:06:28;;;;;;;157.60;46.70;;;6.70;99.90;;;;;;6216095;23;20020;-81
2021/11/17 06:08:56;;;;;;;150.85;45.28;;;6.70;99.90;;;;;;6242124;23;20523;-81
2021/11/17 06:11:33;;;;;;;155.23;46.63;;;6.70;99.90;;;;;;6216166;23;20436;-81
2021/11/17 06:14:01;;;;;;;173.55;47.80;;;6.70;99.90;;;;;;6244180;23;20027;-80
2021/11/17 06:16:29;;;;;;;165.05;45.22;;;6.70;99.90;;;;;;6242030;23;20024;-81
2021/11/17 06:19:03;;;;;;;151.27;45.72;;;6.70;99.90;;;;;;6239202;23;20447;-82
2021/11/17 06:21:28;;;;;;;77.68;29.85;;;6.80;99.90;;;;;;6217222;23;20064;-81
2021/11/17 06:23:58;;;;;;;140.52;46.53;;;7.00;99.90;;;;;;6217457;23;20294;-80
2021/11/17 06:26:28;;;;;;;151.20;46.38;;;6.90;99.90;;;;;;6241572;23;20069;-79
2021/11/17 06:28:58;;;;;;;139.70;45.35;;;6.90;99.90;;;;;;6241900;23;20015;-79
2021/11/17 06:31:26;;;;;;;165.68;47.08;;;6.90;99.90;;;;;;6215822;23;20094;-79
2021/11/17 06:33:51;;;;;;;150.75;46.53;;;6.90;99.90;;;;;;6217543;23;20375;-79
2021/11/17 06:36:17;;;;;;;167.32;48.80;;;6.90;99.90;;;;;;6242044;23;20012;-79
2021/11/17 06:38:47;;;;;;;158.95;47.13;;;6.90;99.90;;;;;;6216675;23;20118;-81
2021/11/17 06:41:15;;;;;;;158.25;47.28;;;7.00;99.90;;;;;;6216702;23;20145;-80
2021/11/17 06:43:41;;;;;;;141.10;45.58;;;7.00;99.90;;;;;;6242163;23;20012;-80
2021/11/17 06:46:07;;;;;;;151.15;47.13;;;7.10;99.90;;;;;;6216697;23;20095;-80
2021/11/17 06:48:34;;;;;;;158.75;48.03;;;7.10;99.90;;;;;;6217027;23;20126;-80
2021/11/17 06:51:00;;;;;;;151.18;44.88;;;7.10;99.90;;;;;;6215944;23;20012;-80
2021/11/17 06:53:29;;;;;;;149.27;45.95;;;7.10;99.90;;;;;;6217076;23;20518;-80
2021/11/17 06:55:56;;;;;;;141.80;43.55;;;7.10;99.90;;;;;;6215890;23;20020;-80
2021/11/17 06:58:23;;;;;;;141.95;45.05;;;7.20;99.90;;;;;;6240491;23;20012;-80
2021/11/17 07:00:51;;;;;;;147.23;45.40;;;7.20;99.90;;;;;;6241561;23;20005;-81
2021/11/17 07:03:17;;;;;;;137.82;43.75;;;7.30;99.90;;;;;;6216501;23;20016;-80
2021/11/17 07:05:43;;;;;;;148.20;45.80;;;7.20;99.90;;;;;;6245021;22;20016;-78
2021/11/17 07:08:09;;;;;;;143.57;45.97;;;7.30;99.90;;;;;;6219776;23;20055;-79
2021/11/17 07:10:36;;;;;;;137.00;44.83;;;7.30;99.90;;;;;;6244174;23;20047;-79
2021/11/17 07:13:04;;;;;;;146.20;44.20;;;7.40;99.90;;;;;;6243166;23;20044;-81
2021/11/17 07:15:30;;;;;;;143.57;44.78;;;7.40;99.90;;;;;;6218992;23;20332;-81
2021/11/17 07:17:57;;;;;;;149.10;46.13;;;7.30;99.90;;;;;;6245245;23;20012;-81
2021/11/17 07:20:22;;;;;;;126.85;42.53;;;7.30;99.90;;;;;;6246024;23;20008;-78
2021/11/17 07:22:48;;;;;;;138.40;44.15;;;7.30;99.90;;;;;;6242465;23;20012;-81
2021/11/17 07:25:19;;;;;;;135.63;44.13;;;7.30;99.90;;;;;;6242122;23;20020;-81
2021/11/17 07:27:45;;;;;;;138.98;44.15;;;7.90;99.90;;;;;;6216738;23;20024;-81
2021/11/17 07:30:14;;;;;;;140.98;43.17;;;7.40;99.90;;;;;;6216220;23;20050;-81
2021/11/17 07:32:40;;;;;;;136.00;42.97;;;7.40;99.90;;;;;;6241624;23;20008;-81
2021/11/17 07:35:07;;;;;;;137.02;43.92;;;7.40;99.90;;;;;;6215881;23;20023;-78
2021/11/17 07:37:33;;;;;;;134.85;44.65;;;7.40;99.90;;;;;;6217289;23;20135;-81
2021/11/17 07:39:58;;;;;;;132.27;42.20;;;7.40;99.90;;;;;;6216182;23;20012;-81
2021/11/17 07:42:24;;;;;;;142.70;43.45;;;7.40;99.90;;;;;;6241753;23;20016;-81
2021/11/17 07:44:52;;;;;;;131.77;42.50;;;7.40;99.90;;;;;;6240452;23;20020;-81
2021/11/17 07:47:18;;;;;;;132.18;43.38;;;7.40;99.90;;;;;;6239561;23;20052;-81
2021/11/17 07:49:44;;;;;;;126.65;43.28;;;7.50;99.90;;;;;;6191817;23;20454;-80
2021/11/17 07:52:10;;;;;;;126.68;41.85;;;7.50;99.90;;;;;;6241775;23;20012;-80
2021/11/17 07:54:35;;;;;;;132.40;43.58;;;7.50;99.90;;;;;;6240821;23;20023;-79
2021/11/17 07:57:03;;;;;;;123.32;43.40;;;7.60;99.90;;;;;;6217239;23;20063;-81
2021/11/17 07:59:30;;;;;;;142.70;46.03;;;7.60;99.90;;;;;;6216333;23;20019;-81
2021/11/17 08:02:03;;;;;;;133.05;42.80;;;7.60;99.90;;;;;;6216704;23;20042;-81
2021/11/17 08:04:34;;;;;;;141.70;44.75;;;7.60;99.90;;;;;;6216701;23;20026;-80
2021/11/17 08:07:06;;;;;;;129.95;42.47;;;7.70;99.90;;;;;;6216647;23;20033;-81
2021/11/17 08:09:32;;;;;;;123.55;41.63;;;7.80;99.90;;;;;;6216736;23;20440;-80
2021/11/17 08:11:57;;;;;;;127.93;42.85;;;7.80;99.90;;;;;;6248677;23;20107;-81
2021/11/17 08:14:29;;;;;;;135.52;43.38;;;8.00;99.90;;;;;;6216510;23;20023;-81
2021/11/17 08:16:57;;;;;;;121.50;40.72;;;7.90;99.90;;;;;;6184909;23;20392;-79
2021/11/17 08:19:28;;;;;;;129.35;43.20;;;7.90;99.90;;;;;;6185811;23;20492;-81
2021/11/17 08:21:57;;;;;;;136.07;44.58;;;8.00;99.90;;;;;;6160965;23;20063;-82
2021/11/17 08:24:24;;;;;;;129.88;43.53;;;8.00;99.90;;;;;;6160795;23;20162;-83
2021/11/17 08:26:53;;;;;;;132.18;42.42;;;8.00;99.90;;;;;;6184189;23;20452;-80
2021/11/17 08:29:19;;;;;;;124.35;42.88;;;8.00;99.90;;;;;;6183989;23;20099;-82
2021/11/17 08:31:45;;;;;;;134.85;44.58;;;8.20;99.90;;;;;;6208746;23;20090;-79
2021/11/17 08:34:11;;;;;;;133.82;44.08;;;8.10;99.90;;;;;;6184435;23;20370;-79
2021/11/17 08:36:36;;;;;;;131.88;43.67;;;8.20;99.90;;;;;;6160449;23;20096;-78
2021/11/17 08:39:04;;;;;;;131.18;43.42;;;8.30;99.90;;;;;;6185605;23;20110;-78
2021/11/17 08:41:30;;;;;;;126.03;43.35;;;8.30;99.90;;;;;;6184992;23;20012;-79
2021/11/17 08:43:56;;;;;;;128.85;42.13;;;8.30;99.90;;;;;;6209869;23;20016;-78
2021/11/17 08:46:26;;;;;;;120.03;40.42;;;8.30;99.90;;;;;;6184148;23;20024;-82
2021/11/17 08:48:56;;;;;;;135.27;43.97;;;8.30;99.90;;;;;;6187217;23;20012;-81
2021/11/17 08:51:48;;;;;;;141.02;42.33;;;8.40;99.90;;;;;;6213646;23;20012;-80
2021/11/17 08:54:19;;;;;;;132.00;41.72;;;8.40;99.90;;;;;;6241940;23;20012;-81
2021/11/17 08:56:52;;;;;;;116.47;39.63;;;8.50;99.90;;;;;;6216319;23;20090;-82
2021/11/17 08:59:24;;;;;;;113.00;39.55;;;8.40;99.90;;;;;;6240662;23;20024;-80
2021/11/17 09:02:12;;;;;;;112.18;40.50;;;8.40;99.90;;;;;;6241274;23;20071;-82
2021/11/17 09:04:50;;;;;;;127.95;40.92;;;8.50;99.90;;;;;;6216133;23;20691;-79
2021/11/17 09:11:04;;;;;;;123.30;41.13;;;8.30;99.90;;;;;;6183696;23;20059;-80
2021/11/17 09:14:56;;;;;;;;;;;;;;;;;;;;;
2021/11/17 09:17:58;;;;;;;110.72;37.75;;;8.50;99.90;;;;;;5976260;24;20381;-81
2021/11/17 09:20:33;;;;;;;117.05;37.50;;;8.50;99.90;;;;;;5977658;23;20012;-81
2021/11/17 09:23:01;;;;;;;109.53;37.70;;;8.60;99.90;;;;;;5934092;24;20034;-81
2021/11/17 09:26:27;;;;;;;97.78;33.95;;;9.00;99.90;;;;;;5956507;24;20291;-81
2021/11/17 09:29:10;;;;;;;104.57;37.33;;;8.50;99.90;;;;;;5978451;23;20444;-81
2021/11/17 09:31:54;;;;;;;116.90;38.45;;;9.20;99.90;;;;;;5979497;24;20028;-82
2021/11/17 09:34:20;;;;;;;97.78;36.55;;;8.70;99.90;;;;;;5979714;23;20108;-81
2021/11/17 09:36:46;;;;;;;102.22;36.90;;;8.60;99.90;;;;;;5979738;24;20048;-81
2021/11/17 09:39:12;;;;;;;102.68;36.35;;;8.70;99.90;;;;;;5977885;24;20154;-78
2021/11/17 09:41:44;;;;;;;103.43;36.78;;;9.20;99.90;;;;;;5955993;24;20417;-79
2021/11/17 09:44:17;;;;;;;119.63;37.42;;;8.80;99.90;;;;;;5979486;24;20020;-83
2021/11/17 09:46:46;;;;;;;97.90;36.15;;;8.80;99.90;;;;;;5987373;23;20121;-82
2021/11/17 09:49:20;;;;;;;103.03;34.92;;;8.80;99.90;;;;;;5989438;23;20106;-83
2021/11/17 09:51:50;;;;;;;112.70;37.47;;;8.90;99.90;;;;;;6090058;23;20244;-83
2021/11/17 09:54:23;;;;;;;99.20;35.92;;;9.00;99.90;;;;;;6154482;23;20019;-83
2021/11/17 09:57:07;;;;;;;105.78;35.45;;;9.00;99.90;;;;;;6244272;23;20099;-83
2021/11/17 09:59:43;;;;;;;105.43;34.63;;;9.00;99.90;;;;;;6217449;23;20048;-83
2021/11/17 10:02:22;;;;;;;104.45;34.17;;;9.00;99.90;;;;;;6217198;23;20094;-76
2021/11/17 10:05:10;;;;;;;100.63;34.67;;;9.10;99.90;;;;;;6241545;22;20325;-80
2021/11/17 10:13:17;;;;;;;73.65;26.27;;;9.20;99.90;;;;;;6239688;23;20016;-82
2021/11/17 10:15:51;;;;;;;66.50;24.10;;;9.20;99.90;;;;;;6242549;23;20063;-83
2021/11/17 10:18:17;;;;;;;66.13;21.63;;;9.20;99.90;;;;;;6242672;23;20169;-82
2021/11/17 10:25:01;;;;;;;59.70;21.42;;;9.40;99.90;;;;;;6155884;22;20052;-83
2021/11/17 10:31:54;;;;;;;46.47;17.63;;;9.70;99.90;;;;;;6150359;23;20028;-82
2021/11/17 10:34:24;;;;;;;44.90;17.42;;;9.80;99.90;;;;;;6101958;23;20132;-82
2021/11/17 10:37:56;;;;;;;54.17;17.15;;;9.70;99.90;;;;;;6101750;23;20036;-82
2021/11/17 10:40:57;;;;;;;49.05;15.48;;;9.90;99.90;;;;;;6096865;23;20143;-81
2021/11/17 10:43:40;;;;;;;47.90;15.57;;;10.00;99.90;;;;;;6100960;23;20358;-83
2021/11/17 10:46:09;;;;;;;37.65;14.52;;;10.10;99.90;;;;;;6146835;23;20021;-80
2021/11/17 10:52:46;;;;;;;38.70;12.63;;;10.30;99.90;;;;;;6035960;23;20023;-82
2021/11/17 10:55:48;;;;;;;41.22;12.48;;;10.30;99.90;;;;;;6035370;23;20019;-81
2021/11/17 10:58:33;;;;;;;39.10;12.00;;;10.40;99.90;;;;;;5958931;23;20031;-80
2021/11/17 11:01:46;;;;;;;35.15;11.40;;;10.40;99.90;;;;;;6012845;23;20023;-80
2021/11/17 11:04:27;;;;;;;42.05;11.10;;;10.50;99.90;;;;;;5923243;24;20095;-81
2021/11/17 11:07:08;;;;;;;31.35;7.47;;;10.60;99.90;;;;;;5924155;24;20032;-84
2021/11/17 11:09:56;;;;;;;28.48;5.88;;;10.70;99.90;;;;;;5922735;24;20025;-82
2021/11/17 11:12:32;;;;;;;35.38;5.30;;;10.80;99.90;;;;;;5923862;24;20028;-82
2021/11/17 11:15:19;;;;;;;34.10;4.90;;;10.90;99.90;;;;;;5923789;24;20021;-81
2021/11/17 11:18:08;;;;;;;32.97;5.03;;;11.10;99.90;;;;;;5923448;24;20032;-82
2021/11/17 11:20:44;;;;;;;26.92;3.67;;;11.10;99.90;;;;;;5923812;24;20173;-81
2021/11/17 11:23:34;;;;;;;28.50;4.32;;;11.20;99.90;;;;;;5924133;24;20017;-82
2021/11/17 11:26:14;;;;;;;28.02;3.67;;;11.20;99.90;;;;;;5942913;24;20059;-82
2021/11/17 11:28:46;;;;;;;21.20;4.10;;;11.20;99.90;;;;;;5957338;23;20023;-82
2021/11/17 11:31:12;;;;;;;30.67;4.25;;;11.40;99.90;;;;;;5983135;23;20061;-82
2021/11/17 11:33:49;;;;;;;28.65;4.03;;;11.40;99.90;;;;;;5983220;23;20027;-82
2021/11/17 11:36:14;;;;;;;30.15;4.20;;;11.30;99.90;;;;;;6054136;23;20077;-82
2021/11/17 11:38:44;;;;;;;24.00;3.22;;;11.30;99.90;;;;;;6074096;23;20018;-82
2021/11/17 11:41:37;;;;;;;18.98;4.00;;;11.30;99.90;;;;;;6178774;23;20353;-82
2021/11/17 11:44:18;;;;;;;27.08;3.75;;;11.30;99.90;;;;;;6241625;23;20047;-84
2021/11/17 11:46:56;;;;;;;33.00;4.00;;;11.30;99.90;;;;;;6243205;23;20016;-82
2021/11/17 11:49:46;;;;;;;26.58;3.95;;;11.50;99.90;;;;;;6242572;23;20458;-82
2021/11/17 11:52:29;;;;;;;25.70;3.35;;;11.60;99.90;;;;;;6243570;23;20016;-82
2021/11/17 11:55:01;;;;;;;19.17;2.90;;;11.50;99.90;;;;;;6243197;23;20131;-82
2021/11/17 11:57:52;;;;;;;23.48;3.55;;;11.70;99.90;;;;;;6243176;23;20012;-83
2021/11/17 12:00:39;;;;;;;24.75;3.33;;;11.80;99.90;;;;;;6242721;23;20046;-81
2021/11/17 12:04:02;;;;;;;;;;;;;;;;;;;;;
2021/11/17 12:07:05;;;;;;;19.80;3.15;;;11.90;99.90;;;;;;6270124;22;20085;-79
2021/11/17 12:09:51;;;;;;;14.60;3.08;;;11.80;99.90;;;;;;6228435;22;20072;-81
2021/11/17 12:12:24;;;;;;;21.63;3.20;;;11.90;99.90;;;;;;6206886;22;20019;-84
2021/11/17 12:14:53;;;;;;;16.40;3.03;;;11.80;99.90;;;;;;6248196;22;20007;-86
2021/11/17 12:17:26;;;;;;;14.15;3.05;;;11.90;99.90;;;;;;6249129;22;20003;-83
2021/11/17 12:19:58;;;;;;;20.33;3.53;;;12.10;99.90;;;;;;6248350;22;20004;-82
2021/11/17 12:22:40;;;;;;;18.00;3.13;;;12.00;99.90;;;;;;6247673;22;20076;-82
2021/11/17 12:25:32;;;;;;;16.52;2.70;;;12.20;99.90;;;;;;6247972;22;20077;-84
2021/11/17 12:28:15;;;;;;;26.40;3.75;;;11.90;99.90;;;;;;6247780;22;20012;-83
2021/11/17 12:30:57;;;;;;;19.55;3.28;;;12.00;99.90;;;;;;6246893;22;20011;-86
2021/11/17 12:33:43;;;;;;;21.73;2.78;;;11.90;99.90;;;;;;6222301;22;20018;-83
2021/11/17 12:36:14;;;;;;;15.88;2.88;;;11.90;99.90;;;;;;6275123;22;20073;-84
2021/11/17 12:38:42;;;;;;;19.95;3.17;;;12.00;99.90;;;;;;6222704;22;20012;-84
2021/11/17 12:41:16;;;;;;;16.65;3.22;;;11.90;99.90;;;;;;6249062;22;20467;-86
2021/11/17 12:43:51;;;;;;;19.48;3.42;;;12.00;99.90;;;;;;6276495;22;20016;-84
2021/11/17 12:46:33;;;;;;;26.88;3.65;;;11.90;99.90;;;;;;6247268;22;20012;-83
2021/11/17 12:49:08;;;;;;;14.45;2.40;;;11.90;99.90;;;;;;6245832;22;20012;-83
2021/11/17 12:51:56;;;;;;;15.60;2.65;;;12.00;99.90;;;;;;6220236;22;20094;-84
2021/11/17 12:54:36;;;;;;;17.88;3.00;;;11.80;99.90;;;;;;6224149;22;20478;-83
2021/11/17 12:57:24;;;;;;;14.52;2.85;;;11.90;99.90;;;;;;6278927;22;20011;-82
2021/11/17 13:00:12;;;;;;;15.68;2.50;;;12.10;99.90;;;;;;6224846;22;20007;-82
2021/11/17 13:02:48;;;;;;;19.92;2.85;;;11.80;99.90;;;;;;6249948;22;20174;-82
2021/11/17 13:05:50;;;;;;;18.02;3.15;;;11.70;99.90;;;;;;6226365;22;20019;-84
2021/11/17 13:08:37;;;;;;;21.08;3.15;;;11.60;99.90;;;;;;6170016;23;20017;-82
2021/11/17 13:11:55;;;;;;;13.18;2.92;;;11.50;99.90;;;;;;6157977;23;20076;-81
2021/11/17 13:14:26;;;;;;;15.85;2.65;;;11.40;99.90;;;;;;6008113;23;20011;-83
2021/11/17 13:16:58;;;;;;;14.60;2.78;;;11.60;99.90;;;;;;6008333;23;20033;-84
2021/11/17 13:19:35;;;;;;;11.45;2.03;;;11.50;99.90;;;;;;5984779;23;20023;-84
2021/11/17 13:22:29;;;;;;;15.10;2.58;;;11.70;99.90;;;;;;5985370;23;20255;-84
2021/11/17 13:25:10;;;;;;;15.88;2.72;;;11.60;99.90;;;;;;6008538;23;20075;-84
2021/11/17 13:27:51;;;;;;;16.13;2.72;;;11.60;99.90;;;;;;5961467;23;20402;-84
2021/11/17 13:30:46;;;;;;;19.35;2.97;;;11.50;99.90;;;;;;5964242;23;20019;-83
2021/11/17 13:33:19;;;;;;;19.90;3.05;;;11.40;99.90;;;;;;5986209;23;20337;-84
2021/11/17 13:35:45;;;;;;;13.77;2.15;;;11.60;99.90;;;;;;5986840;23;20174;-84
2021/11/17 13:38:19;;;;;;;19.00;2.80;;;11.50;99.90;;;;;;5961480;23;20058;-84
2021/11/17 13:40:50;;;;;;;20.40;3.03;;;11.50;99.90;;;;;;5985606;23;20059;-85
2021/11/17 13:43:17;;;;;;;17.10;3.20;;;11.40;99.90;;;;;;5962522;23;20445;-82
2021/11/17 13:45:46;;;;;;;20.65;2.60;;;11.30;99.90;;;;;;5983682;23;20051;-81
2021/11/17 13:48:13;;;;;;;14.23;2.83;;;11.30;99.90;;;;;;5984375;23;20028;-84
2021/11/17 13:50:40;;;;;;;20.45;3.22;;;11.30;99.90;;;;;;6047682;23;20013;-81
2021/11/17 13:53:14;;;;;;;17.25;2.78;;;11.40;99.90;;;;;;6133520;23;20025;-82
2021/11/17 13:56:29;;;;;;;19.40;2.67;;;11.40;99.90;;;;;;6133715;23;20020;-81
2021/11/17 13:59:52;;;;;;;20.15;2.70;;;11.20;99.90;;;;;;6041666;23;20391;-81
2021/11/17 14:06:27;;;;;;;9.93;1.70;;;11.10;99.90;;;;;;6230724;22;20023;-80
2021/11/17 14:08:56;;;;;;;11.15;1.83;;;11.20;99.90;;;;;;6306431;22;20023;-82
2021/11/17 14:11:22;;;;;;;13.32;1.80;;;11.20;99.90;;;;;;6278906;22;20015;-83
2021/11/17 14:14:01;;;;;;;9.30;1.60;;;11.20;99.90;;;;;;6253592;22;20496;-83
2021/11/17 14:16:27;;;;;;;10.48;2.08;;;11.00;99.90;;;;;;6252870;22;20007;-82
2021/11/17 14:18:54;;;;;;;14.88;2.15;;;10.90;99.90;;;;;;6278370;22;20018;-81
2021/11/17 14:21:21;;;;;;;12.18;1.88;;;10.70;99.90;;;;;;6305773;22;20047;-82
2021/11/17 14:24:35;;;;;;;15.68;2.35;;;10.70;99.90;;;;;;6252230;22;20034;-82
2021/11/17 14:27:12;;;;;;;12.68;1.95;;;11.00;99.90;;;;;;6277821;22;20359;-82
2021/11/17 14:32:54;;;;;;;15.82;2.45;;;10.60;99.90;;;;;;6184738;23;20025;-80
2021/11/17 14:35:35;;;;;;;11.65;2.15;;;10.20;99.90;;;;;;6184583;23;20024;-81
2021/11/17 14:38:30;;;;;;;11.95;2.30;;;10.10;99.90;;;;;;6181907;23;20008;-81
2021/11/17 14:41:25;;;;;;;10.48;2.10;;;10.20;99.90;;;;;;6184743;23;20082;-81
2021/11/17 14:45:03;;;;;;;14.45;2.30;;;10.10;99.90;;;;;;6184645;23;20429;-80
2021/11/17 14:47:53;;;;;;;20.73;2.63;;;10.00;99.90;;;;;;6120586;23;20016;-80
2021/11/17 14:50:20;;;;;;;18.30;2.40;;;10.00;99.90;;;;;;6097123;23;20157;-80
2021/11/17 14:52:47;;;;;;;18.65;2.88;;;9.90;99.90;;;;;;6096260;23;20514;-78
2021/11/17 14:55:18;;;;;;;18.77;2.50;;;9.80;99.90;;;;;;6096079;23;20017;-83
2021/11/17 14:57:44;;;;;;;16.58;2.30;;;9.70;99.90;;;;;;6073087;23;20024;-83
2021/11/17 15:00:15;;;;;;;16.45;2.20;;;10.10;99.90;;;;;;6097090;23;20014;-83
2021/11/17 15:02:41;;;;;;;13.77;2.13;;;9.60;99.90;;;;;;6098351;23;20026;-83
2021/11/17 15:05:08;;;;;;;13.30;2.38;;;9.80;99.90;;;;;;6097909;23;20018;-83
2021/11/17 15:07:35;;;;;;;13.98;2.60;;;9.50;99.90;;;;;;6098091;23;20041;-84
2021/11/17 15:10:03;;;;;;;19.67;2.60;;;9.40;99.90;;;;;;6150367;23;20271;-84
2021/11/17 15:12:32;;;;;;;19.00;2.53;;;9.60;99.90;;;;;;6186979;23;20091;-84
2021/11/17 15:15:07;;;;;;;18.27;3.20;;;9.30;99.90;;;;;;6186654;23;20013;-83
2021/11/17 15:17:32;;;;;;;19.55;3.20;;;9.20;99.90;;;;;;6161637;23;20012;-82
2021/11/17 15:19:58;;;;;;;14.48;2.40;;;9.20;99.90;;;;;;6186781;23;20371;-83
2021/11/17 15:22:24;;;;;;;17.73;2.38;;;9.10;99.90;;;;;;6219847;22;20015;-83
2021/11/17 15:24:51;;;;;;;15.52;2.45;;;9.00;99.90;;;;;;6279937;22;20065;-83
2021/11/17 15:27:41;;;;;;;22.77;2.97;;;9.00;99.90;;;;;;6278475;22;20026;-82
2021/11/17 15:30:14;;;;;;;20.60;2.90;;;8.90;99.90;;;;;;6252888;22;20015;-83
2021/11/17 15:32:40;;;;;;;22.17;3.45;;;8.80;99.90;;;;;;6253613;22;20038;-84
2021/11/17 15:35:06;;;;;;;20.20;2.33;;;8.90;99.90;;;;;;6278668;22;20015;-84
2021/11/17 15:37:32;;;;;;;22.85;3.25;;;8.70;99.90;;;;;;6278326;22;20019;-83
2021/11/17 15:39:58;;;;;;;22.98;2.80;;;8.70;99.90;;;;;;6254507;22;20007;-84
2021/11/17 15:42:24;;;;;;;25.95;2.90;;;8.60;99.90;;;;;;6301809;22;20068;-83
2021/11/17 15:44:49;;;;;;;27.88;3.55;;;8.60;99.90;;;;;;6294054;22;20015;-83
2021/11/17 15:47:17;;;;;;;23.30;2.92;;;8.40;99.90;;;;;;6269654;22;20030;-83
2021/11/17 15:49:43;;;;;;;15.57;2.60;;;8.60;99.90;;;;;;6269371;22;20015;-85
2021/11/17 15:52:10;;;;;;;19.58;2.97;;;8.30;99.90;;;;;;6288660;22;20015;-84
2021/11/17 15:54:36;;;;;;;14.68;3.78;;;8.80;99.90;;;;;;6287808;22;20026;-83
2021/11/17 15:57:02;;;;;;;18.27;3.20;;;8.20;99.90;;;;;;6282085;22;20008;-83
2021/11/17 15:59:28;;;;;;;14.77;2.90;;;8.20;99.90;;;;;;6278456;22;20049;-81
2021/11/17 16:01:55;;;;;;;16.00;4.05;;;8.20;99.90;;;;;;6251408;22;20026;-85
2021/11/17 16:04:21;;;;;;;21.42;5.60;;;8.10;99.90;;;;;;6278272;22;20034;-80
2021/11/17 16:07:23;;;;;;;33.28;9.15;;;8.00;99.90;;;;;;6272540;22;20392;-83
2021/11/17 16:09:54;;;;;;;24.80;7.63;;;7.90;99.90;;;;;;6273119;22;20019;-83
2021/11/17 16:12:22;;;;;;;26.13;7.28;;;7.80;99.90;;;;;;6248226;22;20278;-84
2021/11/17 16:14:48;;;;;;;20.90;4.35;;;7.80;99.90;;;;;;6248048;22;20016;-84
2021/11/17 16:17:15;;;;;;;18.35;3.63;;;7.70;99.90;;;;;;6247673;22;20090;-79
2021/11/17 16:19:43;;;;;;;21.30;3.42;;;8.30;99.90;;;;;;6272398;22;20029;-81
2021/11/17 16:22:12;;;;;;;23.17;2.97;;;7.80;99.90;;;;;;6247101;22;20023;-81